createdAt,value
2017-12-10T00:00:41.199Z,4.10
2017-12-10T00:03:07.461Z,4.77
2017-12-10T00:05:33.911Z,5.03
2017-12-10T00:08:00.413Z,4.43
2017-12-10T00:10:26.931Z,4.63
2017-12-10T00:12:53.400Z,4.60
2017-12-10T00:15:19.904Z,4.07
2017-12-10T00:17:46.331Z,4.30
2017-12-10T00:20:12.789Z,4.40
2017-12-10T00:22:39.260Z,4.93
2017-12-10T00:25:05.708Z,4.80
2017-12-10T00:27:32.135Z,4.40
2017-12-10T00:29:58.706Z,5.07
2017-12-10T00:32:25.164Z,4.83
2017-12-10T00:34:51.610Z,4.17
2017-12-10T00:37:18.105Z,4.80
2017-12-10T00:39:44.538Z,5.37
2017-12-10T00:42:11.201Z,4.63
2017-12-10T00:44:37.727Z,3.50
2017-12-10T00:47:04.209Z,4.13
2017-12-10T00:49:30.656Z,3.63
2017-12-10T00:51:57.147Z,4.20
2017-12-10T00:54:23.579Z,4.27
2017-12-10T00:56:50.062Z,6.90
2017-12-10T00:59:16.540Z,4.60
2017-12-10T01:01:43.012Z,5.03
2017-12-10T01:04:09.821Z,3.83
2017-12-10T01:06:36.368Z,4.77
2017-12-10T01:09:02.865Z,4.10
2017-12-10T01:11:29.297Z,3.80
2017-12-10T01:13:55.801Z,3.50
2017-12-10T01:16:22.241Z,3.70
2017-12-10T01:18:48.701Z,3.70
2017-12-10T01:21:15.212Z,4.07
2017-12-10T01:23:42.014Z,3.67
2017-12-10T01:26:08.461Z,3.73
2017-12-10T01:28:34.964Z,4.00
2017-12-10T01:31:01.381Z,5.07
2017-12-10T01:33:27.871Z,4.03
2017-12-10T01:35:54.451Z,5.27
2017-12-10T01:38:20.872Z,5.40
2017-12-10T01:40:47.321Z,4.57
2017-12-10T01:43:13.828Z,4.53
2017-12-10T01:45:40.288Z,5.23
2017-12-10T01:48:06.737Z,4.17
2017-12-10T01:50:33.292Z,4.37
2017-12-10T01:52:59.794Z,4.10
2017-12-10T01:55:26.219Z,4.80
2017-12-10T01:57:52.711Z,4.50
2017-12-10T02:00:19.168Z,4.70
2017-12-10T02:02:45.612Z,4.30
2017-12-10T02:05:12.088Z,4.30
2017-12-10T02:07:38.544Z,4.13
2017-12-10T02:10:05.028Z,4.60
2017-12-10T02:12:31.519Z,5.17
2017-12-10T02:14:57.915Z,6.93
2017-12-10T02:17:24.377Z,6.37
2017-12-10T02:19:50.912Z,6.73
2017-12-10T02:22:17.375Z,6.20
2017-12-10T02:24:43.818Z,5.63
2017-12-10T02:27:10.320Z,5.27
2017-12-10T02:29:36.783Z,4.53
2017-12-10T02:32:03.273Z,3.93
2017-12-10T02:34:29.783Z,3.00
2017-12-10T02:36:56.248Z,3.50
2017-12-10T02:39:22.720Z,2.63
2017-12-10T02:41:49.327Z,3.13
2017-12-10T02:44:15.792Z,3.53
2017-12-10T02:46:42.256Z,2.87
2017-12-10T02:49:08.775Z,3.27
2017-12-10T02:51:35.267Z,3.37
2017-12-10T02:54:01.852Z,3.23
2017-12-10T02:56:28.355Z,2.87
2017-12-10T02:58:54.805Z,3.50
2017-12-10T03:01:21.257Z,3.27
2017-12-10T03:03:47.756Z,3.47
2017-12-10T03:06:14.465Z,3.93
2017-12-10T03:08:44.751Z,4.17
2017-12-10T03:11:11.274Z,3.90
2017-12-10T03:13:37.741Z,3.63
2017-12-10T03:16:04.222Z,3.70
2017-12-10T03:18:30.844Z,3.53
2017-12-10T03:20:57.300Z,3.63
2017-12-10T03:23:23.758Z,3.53
2017-12-10T03:25:50.256Z,3.80
2017-12-10T03:28:16.706Z,3.43
2017-12-10T03:30:43.197Z,3.30
2017-12-10T03:33:09.716Z,2.90
2017-12-10T03:35:36.168Z,3.30
2017-12-10T03:38:02.637Z,2.83
2017-12-10T03:40:29.170Z,2.97
2017-12-10T03:42:55.741Z,3.37
2017-12-10T03:45:22.276Z,3.57
2017-12-10T03:47:48.772Z,3.13
2017-12-10T03:50:15.221Z,4.17
2017-12-10T03:52:41.665Z,3.80
2017-12-10T03:55:08.153Z,4.10
2017-12-10T03:57:34.599Z,4.40
2017-12-10T04:00:01.004Z,4.30
2017-12-10T04:02:27.616Z,4.20
2017-12-10T04:04:54.152Z,4.43
2017-12-10T04:07:20.568Z,4.97
2017-12-10T04:09:47.068Z,4.23
2017-12-10T04:12:13.555Z,4.60
2017-12-10T04:14:39.989Z,4.40
2017-12-10T04:17:06.501Z,3.90
2017-12-10T04:19:32.931Z,3.40
2017-12-10T04:21:59.368Z,3.00
2017-12-10T04:24:25.861Z,2.57
2017-12-10T04:26:52.289Z,2.40
2017-12-10T04:29:18.720Z,2.50
2017-12-10T04:31:45.296Z,2.70
2017-12-10T04:34:11.729Z,2.77
2017-12-10T04:36:38.180Z,2.70
2017-12-10T04:39:04.730Z,2.50
2017-12-10T04:41:31.143Z,2.43
2017-12-10T04:43:57.574Z,2.50
2017-12-10T04:46:24.036Z,2.30
2017-12-10T04:48:50.462Z,1.40
2017-12-10T04:51:16.904Z,1.43
2017-12-10T04:53:43.365Z,1.50
2017-12-10T04:56:09.800Z,1.50
2017-12-10T04:58:36.255Z,1.67
2017-12-10T05:01:02.721Z,1.50
2017-12-10T05:03:29.269Z,1.40
2017-12-10T05:05:55.700Z,1.53
2017-12-10T05:08:22.480Z,1.50
2017-12-10T05:10:48.916Z,1.80
2017-12-10T05:13:15.342Z,1.70
2017-12-10T05:15:41.823Z,1.80
2017-12-10T05:18:08.241Z,1.87
2017-12-10T05:20:34.639Z,2.00
2017-12-10T05:23:01.201Z,1.83
2017-12-10T05:25:27.680Z,1.80
2017-12-10T05:27:54.218Z,1.70
2017-12-10T05:30:20.680Z,1.80
2017-12-10T05:32:47.116Z,1.77
2017-12-10T05:35:13.548Z,2.07
2017-12-10T05:37:40.076Z,2.20
2017-12-10T05:40:06.511Z,1.90
2017-12-10T05:42:33.020Z,2.00
2017-12-10T05:44:59.486Z,1.90
2017-12-10T05:47:25.929Z,2.40
2017-12-10T05:49:52.348Z,1.80
2017-12-10T05:52:18.856Z,2.00
2017-12-10T05:54:45.288Z,2.27
2017-12-10T05:57:11.830Z,2.53
2017-12-10T05:59:38.360Z,2.57
2017-12-10T06:02:04.787Z,2.90
2017-12-10T06:04:31.222Z,2.90
2017-12-10T06:06:57.688Z,2.80
2017-12-10T06:09:24.120Z,2.80
2017-12-10T06:11:50.593Z,2.57
2017-12-10T06:14:17.061Z,2.80
2017-12-10T06:16:43.483Z,2.67
2017-12-10T06:19:09.928Z,2.60
2017-12-10T06:21:36.388Z,2.50
2017-12-10T06:24:02.812Z,2.70
2017-12-10T06:26:29.243Z,2.73
2017-12-10T06:28:55.715Z,2.87
2017-12-10T06:31:22.120Z,2.70
2017-12-10T06:33:48.563Z,2.73
2017-12-10T06:36:15.069Z,3.13
2017-12-10T06:38:41.504Z,3.07
2017-12-10T06:41:07.930Z,2.73
2017-12-10T06:43:34.397Z,2.83
2017-12-10T06:46:00.828Z,2.63
2017-12-10T06:48:27.264Z,3.20
2017-12-10T06:50:53.739Z,2.90
2017-12-10T06:53:20.174Z,3.07
2017-12-10T06:55:46.567Z,3.30
2017-12-10T06:58:13.040Z,3.20
2017-12-10T07:00:39.509Z,2.83
2017-12-10T07:03:05.973Z,2.90
2017-12-10T07:05:32.429Z,2.70
2017-12-10T07:07:58.868Z,2.73
2017-12-10T07:10:25.316Z,2.47
2017-12-10T07:12:51.805Z,2.60
2017-12-10T07:15:18.220Z,2.50
2017-12-10T07:17:44.607Z,2.47
2017-12-10T07:20:12.148Z,2.60
2017-12-10T07:22:39.039Z,2.37
2017-12-10T07:25:05.516Z,2.93
2017-12-10T07:27:32.157Z,3.20
2017-12-10T07:29:58.682Z,2.70
2017-12-10T07:32:25.117Z,3.10
2017-12-10T07:34:52.304Z,2.83
2017-12-10T07:37:18.733Z,3.33
2017-12-10T07:39:45.136Z,3.20
2017-12-10T07:42:11.634Z,2.90
2017-12-10T07:44:38.170Z,3.30
2017-12-10T07:47:04.598Z,2.63
2017-12-10T07:49:31.213Z,2.93
2017-12-10T07:51:57.671Z,3.10
2017-12-10T07:54:24.120Z,2.73
2017-12-10T07:56:50.616Z,2.80
2017-12-10T07:59:17.228Z,2.93
2017-12-10T08:01:43.691Z,2.70
2017-12-10T08:04:10.759Z,3.10
2017-12-10T08:06:38.080Z,2.43
2017-12-10T08:09:04.627Z,3.43
2017-12-10T08:11:31.191Z,3.60
2017-12-10T08:13:57.645Z,3.00
2017-12-10T08:16:24.123Z,2.90
2017-12-10T08:18:50.622Z,2.70
2017-12-10T08:21:17.098Z,3.53
2017-12-10T08:23:43.530Z,2.80
2017-12-10T08:26:10.004Z,3.00
2017-12-10T08:28:36.525Z,3.50
2017-12-10T08:31:02.958Z,3.27
2017-12-10T08:33:29.433Z,2.57
2017-12-10T08:35:55.876Z,2.63
2017-12-10T08:38:22.315Z,3.73
2017-12-10T08:40:48.761Z,3.13
2017-12-10T08:43:15.200Z,2.90
2017-12-10T08:45:41.600Z,3.60
2017-12-10T08:48:08.199Z,3.57
2017-12-10T08:50:36.091Z,3.07
2017-12-10T08:53:02.524Z,3.30
2017-12-10T08:55:29.004Z,3.17
2017-12-10T08:57:55.432Z,3.37
2017-12-10T09:00:23.512Z,3.60
2017-12-10T09:02:50.147Z,3.67
2017-12-10T09:05:16.587Z,3.60
2017-12-10T09:07:43.145Z,3.43
2017-12-10T09:10:09.748Z,3.73
2017-12-10T09:12:36.215Z,3.50
2017-12-10T09:15:02.754Z,3.77
2017-12-10T09:17:29.260Z,2.77
2017-12-10T09:19:55.697Z,3.80
2017-12-10T09:22:22.133Z,4.47
2017-12-10T09:24:48.688Z,3.60
2017-12-10T09:27:15.121Z,3.93
2017-12-10T09:29:41.555Z,3.53
2017-12-10T09:32:08.032Z,3.93
2017-12-10T09:34:35.509Z,3.87
2017-12-10T09:37:10.994Z,3.70
2017-12-10T09:39:37.840Z,4.20
2017-12-10T09:42:04.578Z,3.40
2017-12-10T09:44:31.064Z,3.23
2017-12-10T09:46:57.481Z,3.13
2017-12-10T09:49:23.979Z,3.40
2017-12-10T09:51:50.515Z,3.60
2017-12-10T09:54:16.933Z,4.10
2017-12-10T09:56:43.384Z,3.40
2017-12-10T09:59:09.840Z,3.97
2017-12-10T10:01:36.264Z,3.30
2017-12-10T10:04:02.784Z,3.30
2017-12-10T10:06:29.320Z,3.10
2017-12-10T10:08:55.732Z,2.83
2017-12-10T10:11:22.185Z,2.90
2017-12-10T10:13:48.656Z,3.17
2017-12-10T10:16:15.075Z,2.60
2017-12-10T10:18:41.607Z,3.23
2017-12-10T10:21:08.067Z,4.03
2017-12-10T10:23:34.492Z,3.47
2017-12-10T10:26:00.964Z,3.77
2017-12-10T10:28:29.240Z,3.00
2017-12-10T10:30:57.031Z,2.90
2017-12-10T10:33:23.589Z,2.80
2017-12-10T10:35:50.060Z,3.50
2017-12-10T10:38:16.537Z,3.70
2017-12-10T10:40:43.075Z,3.30
2017-12-10T10:43:12.626Z,2.90
2017-12-10T10:45:41.776Z,3.13
2017-12-10T10:48:08.209Z,3.93
2017-12-10T10:50:34.673Z,3.90
2017-12-10T10:53:01.178Z,3.93
2017-12-10T10:55:27.610Z,3.13
2017-12-10T10:57:54.080Z,3.90
2017-12-10T11:00:20.560Z,3.37
2017-12-10T11:02:47.038Z,3.70
2017-12-10T11:05:13.503Z,3.97
2017-12-10T11:07:39.912Z,3.60
2017-12-10T11:10:06.365Z,3.23
2017-12-10T11:12:32.860Z,3.77
2017-12-10T11:14:59.308Z,3.50
2017-12-10T11:17:25.769Z,3.73
2017-12-10T11:19:52.284Z,3.83
2017-12-10T11:22:19.740Z,3.40
2017-12-10T11:24:46.172Z,5.03
2017-12-10T11:27:12.688Z,4.30
2017-12-10T11:29:39.128Z,3.83
2017-12-10T11:32:05.609Z,3.93
2017-12-10T11:34:32.097Z,4.17
2017-12-10T11:36:58.548Z,3.73
2017-12-10T11:39:24.971Z,3.93
2017-12-10T11:41:51.460Z,4.30
2017-12-10T11:44:17.892Z,4.70
2017-12-10T11:46:44.733Z,4.20
2017-12-10T11:49:11.235Z,4.87
2017-12-10T11:51:38.126Z,5.10
2017-12-10T11:54:04.562Z,5.10
2017-12-10T11:56:31.068Z,4.57
2017-12-10T11:58:57.512Z,4.70
2017-12-10T12:01:23.952Z,4.90
2017-12-10T12:03:50.468Z,4.27
2017-12-10T12:06:16.916Z,4.53
2017-12-10T12:08:43.360Z,4.47
2017-12-10T12:11:09.835Z,4.70
2017-12-10T12:13:36.268Z,4.07
2017-12-10T12:16:02.699Z,4.90
2017-12-10T12:18:29.313Z,4.53
2017-12-10T12:20:55.772Z,4.20
2017-12-10T12:23:22.249Z,3.87
2017-12-10T12:25:48.749Z,4.17
2017-12-10T12:28:15.184Z,4.57
2017-12-10T12:30:41.952Z,3.57
2017-12-10T12:33:08.576Z,4.10
2017-12-10T12:35:35.000Z,4.20
2017-12-10T12:38:01.484Z,4.80
2017-12-10T12:40:27.960Z,4.67
2017-12-10T12:42:54.422Z,5.10
2017-12-10T12:45:21.068Z,4.10
2017-12-10T12:47:47.871Z,4.67
2017-12-10T12:50:14.481Z,4.70
2017-12-10T12:52:40.972Z,5.03
2017-12-10T12:55:07.617Z,5.20
2017-12-10T12:57:34.834Z,5.30
2017-12-10T13:00:01.288Z,5.50
2017-12-10T13:02:27.875Z,5.27
2017-12-10T13:04:54.296Z,5.77
2017-12-10T13:07:20.725Z,5.43
2017-12-10T13:09:47.279Z,5.87
2017-12-10T13:12:14.708Z,5.20
2017-12-10T13:14:41.143Z,5.47
2017-12-10T13:17:07.631Z,6.60
2017-12-10T13:19:34.040Z,6.27
2017-12-10T13:22:00.473Z,7.20
2017-12-10T13:24:26.973Z,6.50
2017-12-10T13:26:53.368Z,6.93
2017-12-10T13:29:19.821Z,8.37
2017-12-10T13:31:46.276Z,6.97
2017-12-10T13:34:12.737Z,7.07
2017-12-10T13:36:39.170Z,5.60
2017-12-10T13:39:05.655Z,6.43
2017-12-10T13:54:58.392Z,7.00
2017-12-10T13:57:24.794Z,6.77
2017-12-10T13:59:51.208Z,6.87
2017-12-10T14:02:17.754Z,6.63
2017-12-10T14:04:44.202Z,6.03
2017-12-10T14:07:10.672Z,6.73
2017-12-10T14:09:37.180Z,6.50
2017-12-10T14:12:03.683Z,7.13
2017-12-10T14:14:30.140Z,6.40
2017-12-10T14:16:56.624Z,7.10
2017-12-10T14:19:23.063Z,6.53
2017-12-10T14:21:49.519Z,6.10
2017-12-10T14:24:16.040Z,7.63
2017-12-10T14:26:42.471Z,7.00
2017-12-10T14:29:08.907Z,6.73
2017-12-10T14:31:35.349Z,7.33
2017-12-10T14:34:01.773Z,6.80
2017-12-10T14:36:28.168Z,6.77
2017-12-10T14:38:54.651Z,6.70
2017-12-10T14:41:21.096Z,7.47
2017-12-10T14:43:47.525Z,9.23
2017-12-10T14:46:14.014Z,10.13
2017-12-10T14:48:40.441Z,9.10
2017-12-10T14:51:06.896Z,9.20
2017-12-10T14:53:33.460Z,8.93
2017-12-10T14:55:59.868Z,8.70
2017-12-10T14:58:26.311Z,8.37
2017-12-10T15:00:52.792Z,8.17
2017-12-10T15:03:19.228Z,8.20
2017-12-10T15:05:45.829Z,7.43
2017-12-10T15:08:12.569Z,8.33
2017-12-10T15:10:39.029Z,9.10
2017-12-10T15:13:05.538Z,9.97
2017-12-10T15:15:32.051Z,9.70
2017-12-10T15:17:58.476Z,8.77
2017-12-10T15:20:24.900Z,8.40
2017-12-10T15:22:51.405Z,9.10
2017-12-10T15:25:17.844Z,12.97
2017-12-10T15:27:44.281Z,19.60
2017-12-10T15:30:10.776Z,32.33
2017-12-10T15:32:37.244Z,30.77
2017-12-10T15:35:03.665Z,25.90
2017-12-10T15:37:30.219Z,25.67
2017-12-10T15:39:56.651Z,29.70
2017-12-10T15:42:23.093Z,20.30
2017-12-10T15:44:49.588Z,19.93
2017-12-10T15:47:16.043Z,28.57
2017-12-10T15:49:42.563Z,27.57
2017-12-10T15:52:09.291Z,16.17
2017-12-10T15:54:35.826Z,14.30
2017-12-10T15:57:02.277Z,11.63
2017-12-10T15:59:28.793Z,12.50
2017-12-10T16:01:55.236Z,9.17
2017-12-10T16:04:21.684Z,16.10
2017-12-10T16:06:48.214Z,14.67
2017-12-10T16:09:14.630Z,16.50
2017-12-10T16:11:41.132Z,16.70
2017-12-10T16:14:07.632Z,15.63
2017-12-10T16:16:34.130Z,12.30
2017-12-10T16:19:03.312Z,14.33
2017-12-10T16:21:30.212Z,15.67
2017-12-10T16:23:58.290Z,11.27
2017-12-10T16:26:24.820Z,10.93
2017-12-10T16:28:51.524Z,10.23
2017-12-10T16:31:17.965Z,11.90
2017-12-10T16:33:44.420Z,12.67
2017-12-10T16:36:10.981Z,13.80
2017-12-10T16:38:37.462Z,10.73
2017-12-10T16:41:04.817Z,12.63
2017-12-10T16:43:31.461Z,14.10
2017-12-10T16:45:57.944Z,16.20
2017-12-10T16:48:24.476Z,16.07
2017-12-10T16:50:54.572Z,17.60
2017-12-10T16:53:22.600Z,20.13
2017-12-10T16:55:49.957Z,23.00
2017-12-10T16:58:19.323Z,28.20
2017-12-10T17:00:45.779Z,29.23
2017-12-10T17:03:12.360Z,26.30
2017-12-10T17:05:38.980Z,23.90
2017-12-10T17:08:05.437Z,23.03
2017-12-10T17:10:31.900Z,23.43
2017-12-10T17:12:58.384Z,26.60
2017-12-10T17:15:24.825Z,30.17
2017-12-10T17:17:51.281Z,26.97
2017-12-10T17:20:18.320Z,27.60
2017-12-10T17:22:44.832Z,29.43
2017-12-10T17:25:11.291Z,28.17
2017-12-10T17:27:37.904Z,27.47
2017-12-10T17:30:04.337Z,27.27
2017-12-10T17:32:30.785Z,29.47
2017-12-10T17:34:57.263Z,27.20
2017-12-10T17:37:23.720Z,28.63
2017-12-10T17:39:50.148Z,28.13
2017-12-10T17:42:16.684Z,26.93
2017-12-10T17:44:43.116Z,23.90
2017-12-10T17:47:09.557Z,23.93
2017-12-10T17:49:37.985Z,24.13
2017-12-10T17:52:04.424Z,23.23
2017-12-10T17:54:30.924Z,24.23
2017-12-10T17:56:57.493Z,25.43
2017-12-10T17:59:23.924Z,23.97
2017-12-10T18:01:50.592Z,20.37
2017-12-10T18:04:17.084Z,19.93
2017-12-10T18:06:43.666Z,19.33
2017-12-10T18:09:10.112Z,25.02
2017-12-10T18:11:36.682Z,21.87
2017-12-10T18:14:03.080Z,20.37
2017-12-10T18:16:29.797Z,24.23
2017-12-10T18:18:56.325Z,25.73
2017-12-10T18:21:22.800Z,25.60
2017-12-10T18:23:49.232Z,36.37
2017-12-10T18:26:15.700Z,49.50
2017-12-10T18:28:42.339Z,49.77
2017-12-10T18:31:08.809Z,36.10
2017-12-10T18:33:35.327Z,35.47
2017-12-10T18:36:02.031Z,32.63
2017-12-10T18:38:28.501Z,28.60
2017-12-10T18:40:56.533Z,25.53
2017-12-10T18:43:23.072Z,23.10
2017-12-10T18:45:49.508Z,20.13
2017-12-10T18:48:16.048Z,19.57
2017-12-10T18:50:42.475Z,19.67
2017-12-10T18:53:08.908Z,15.10
2017-12-10T18:55:35.420Z,14.43
2017-12-10T18:58:01.892Z,17.83
2017-12-10T19:00:28.412Z,19.17
2017-12-10T19:02:55.944Z,22.30
2017-12-10T19:05:22.411Z,23.30
2017-12-10T19:07:48.848Z,21.33
2017-12-10T19:10:16.907Z,23.90
2017-12-10T19:12:43.373Z,28.17
2017-12-10T19:15:09.832Z,29.10
2017-12-10T19:17:36.327Z,31.70
2017-12-10T19:20:02.924Z,32.27
2017-12-10T19:22:29.381Z,38.90
2017-12-10T19:24:55.988Z,35.40
2017-12-10T19:27:22.556Z,34.03
2017-12-10T19:29:48.972Z,35.27
2017-12-10T19:32:15.451Z,33.70
2017-12-10T19:34:41.994Z,32.57
2017-12-10T19:37:08.427Z,33.27
2017-12-10T19:39:34.926Z,33.63
2017-12-10T19:42:01.365Z,33.77
2017-12-10T19:44:27.792Z,34.27
2017-12-10T19:46:54.288Z,34.87
2017-12-10T19:49:20.810Z,35.63
2017-12-10T19:51:47.304Z,34.07
2017-12-10T19:54:13.816Z,36.43
2017-12-10T19:56:40.256Z,34.70
2017-12-10T19:59:06.700Z,33.87
2017-12-10T20:01:33.218Z,34.47
2017-12-10T20:04:00.652Z,33.87
2017-12-10T20:06:28.076Z,36.47
2017-12-10T20:08:55.402Z,35.10
2017-12-10T20:11:21.888Z,34.40
2017-12-10T20:13:48.389Z,35.70
2017-12-10T20:16:14.892Z,36.13
2017-12-10T20:18:41.368Z,37.90
2017-12-10T20:21:08.269Z,39.40
2017-12-10T20:23:34.933Z,39.40
2017-12-10T20:26:01.380Z,39.07
2017-12-10T20:28:27.872Z,38.93
2017-12-10T20:30:54.380Z,37.53
2017-12-10T20:33:20.836Z,36.50
2017-12-10T20:35:47.281Z,39.03
2017-12-10T20:38:13.816Z,34.57
2017-12-10T20:40:40.240Z,34.17
2017-12-10T20:43:06.801Z,34.77
2017-12-10T20:45:33.258Z,36.43
2017-12-10T20:47:59.700Z,37.63
2017-12-10T20:50:26.116Z,39.90
2017-12-10T20:52:52.597Z,40.40
2017-12-10T20:55:19.045Z,38.37
2017-12-10T20:57:45.468Z,38.10
2017-12-10T21:00:11.968Z,42.57
2017-12-10T21:02:38.408Z,40.13
2017-12-10T21:05:04.839Z,43.90
2017-12-10T21:07:31.332Z,41.90
2017-12-10T21:09:57.772Z,40.53
2017-12-10T21:12:24.432Z,35.70
2017-12-10T21:14:51.024Z,33.37
2017-12-10T21:17:17.496Z,35.90
2017-12-10T21:19:43.944Z,35.27
2017-12-10T21:22:10.467Z,35.37
2017-12-10T21:24:36.903Z,32.03
2017-12-10T21:27:03.386Z,31.27
2017-12-10T21:29:29.892Z,31.30
2017-12-10T21:31:56.342Z,36.90
2017-12-10T21:34:22.809Z,41.93
2017-12-10T21:36:49.364Z,43.53
2017-12-10T21:39:15.841Z,38.80
2017-12-10T21:41:42.275Z,38.70
2017-12-10T21:44:08.800Z,32.47
2017-12-10T21:46:35.245Z,32.67
2017-12-10T21:49:01.700Z,28.80
2017-12-10T21:51:28.197Z,30.07
2017-12-10T21:53:54.696Z,29.47
2017-12-10T21:56:21.118Z,32.90
2017-12-10T21:58:48.492Z,27.93
2017-12-10T22:01:15.134Z,26.33
2017-12-10T22:03:41.569Z,25.57
2017-12-10T22:06:08.012Z,29.63
2017-12-10T22:08:34.456Z,30.07
2017-12-10T22:11:00.943Z,33.63
2017-12-10T22:13:27.391Z,34.93
2017-12-10T22:15:53.825Z,33.37
2017-12-10T22:18:20.240Z,33.10
2017-12-10T22:20:46.772Z,33.57
2017-12-10T22:23:13.229Z,29.33
2017-12-10T22:25:39.724Z,28.70
2017-12-10T22:28:06.227Z,28.43
2017-12-10T22:30:32.680Z,27.10
2017-12-10T22:32:59.164Z,26.07
2017-12-10T22:35:25.648Z,28.50
2017-12-10T22:37:52.186Z,30.17
2017-12-10T22:40:18.643Z,28.80
2017-12-10T22:42:45.181Z,28.23
2017-12-10T22:45:11.569Z,24.13
2017-12-10T22:47:37.976Z,23.07
2017-12-10T22:50:04.380Z,23.10
2017-12-10T22:52:30.777Z,24.00
2017-12-10T22:54:57.125Z,26.73
2017-12-10T22:57:23.560Z,27.07
2017-12-10T22:59:49.930Z,27.93
2017-12-10T23:02:16.281Z,27.83
2017-12-10T23:04:42.716Z,26.57
2017-12-10T23:07:09.128Z,25.23
2017-12-10T23:09:35.492Z,23.20
2017-12-10T23:12:01.921Z,20.93
2017-12-10T23:14:34.272Z,18.00
2017-12-10T23:17:00.691Z,18.33
2017-12-10T23:19:27.080Z,21.80
2017-12-10T23:21:53.485Z,22.03
2017-12-10T23:24:19.874Z,22.87
2017-12-10T23:26:46.345Z,20.43
2017-12-10T23:29:12.944Z,21.83
2017-12-10T23:31:39.388Z,20.17
2017-12-10T23:34:05.908Z,20.93
2017-12-10T23:36:32.367Z,23.03
2017-12-10T23:38:58.835Z,22.17
2017-12-10T23:41:25.317Z,23.63
2017-12-10T23:43:51.925Z,24.37
2017-12-10T23:46:18.331Z,25.43
2017-12-10T23:48:44.848Z,24.40
2017-12-10T23:51:11.245Z,21.83
2017-12-10T23:53:37.634Z,22.17
2017-12-10T23:56:04.120Z,20.83
2017-12-10T23:58:30.503Z,19.93
